createdAt,value
2022-08-01T00:00:06.976Z,15.60
2022-08-01T00:02:39.892Z,15.43
2022-08-01T00:05:07.985Z,17.00
2022-08-01T00:07:35.065Z,15.00
2022-08-01T00:10:02.448Z,14.85
2022-08-01T00:12:29.021Z,15.93
2022-08-01T00:14:55.512Z,14.80
2022-08-01T00:17:22.071Z,15.90
2022-08-01T00:19:48.583Z,18.15
2022-08-01T00:22:15.130Z,15.30
2022-08-01T00:24:41.732Z,16.83
2022-08-01T00:27:08.229Z,17.05
2022-08-01T00:30:12.761Z,16.77
2022-08-01T00:32:21.244Z,18.63
2022-08-01T00:34:47.763Z,18.02
2022-08-01T00:37:16.333Z,19.17
2022-08-01T00:39:43.675Z,20.77
2022-08-01T00:42:12.152Z,23.50
2022-08-01T00:44:39.295Z,20.30
2022-08-01T00:47:06.181Z,20.05
2022-08-01T00:49:33.098Z,20.13
2022-08-01T00:52:00.159Z,18.55
2022-08-01T00:54:27.428Z,15.80
2022-08-01T00:56:55.166Z,18.38
2022-08-01T00:59:23.514Z,15.98
2022-08-01T01:02:01.710Z,15.70
2022-08-01T01:04:28.312Z,15.57
2022-08-01T01:07:07.301Z,13.10
2022-08-01T01:10:06.776Z,13.27
2022-08-01T01:12:38.932Z,15.48
2022-08-01T01:15:37.780Z,15.88
2022-08-01T01:18:19.555Z,14.15
2022-08-01T01:20:56.886Z,12.40
2022-08-01T01:24:14.454Z,13.68
2022-08-01T01:27:13.123Z,15.05
2022-08-01T01:29:59.856Z,11.93
2022-08-01T01:32:34.979Z,12.05
2022-08-01T01:35:08.689Z,11.43
2022-08-01T01:37:39.374Z,12.32
2022-08-01T01:40:07.833Z,13.83
2022-08-01T01:42:35.408Z,11.88
2022-08-01T01:45:06.361Z,12.18
2022-08-01T01:47:34.216Z,12.35
2022-08-01T01:50:01.669Z,13.60
2022-08-01T01:52:30.537Z,13.77
2022-08-01T01:54:58.172Z,12.50
2022-08-01T01:57:25.261Z,12.63
2022-08-01T01:59:53.591Z,12.90
2022-08-01T02:02:23.409Z,13.77
2022-08-01T02:04:50.844Z,12.20
2022-08-01T02:07:24.990Z,12.23
2022-08-01T02:09:53.631Z,13.57
2022-08-01T02:12:22.520Z,13.05
2022-08-01T02:14:50.923Z,10.95
2022-08-01T02:17:19.703Z,10.70
2022-08-01T02:19:46.858Z,11.60
2022-08-01T02:22:21.363Z,11.95
2022-08-01T02:24:56.184Z,11.80
2022-08-01T02:27:29.441Z,11.57
2022-08-01T02:30:07.150Z,12.68
2022-08-01T02:32:44.084Z,12.15
2022-08-01T02:35:32.864Z,11.07
2022-08-01T02:38:02.111Z,14.45
2022-08-01T02:40:32.568Z,12.38
2022-08-01T02:43:01.216Z,12.93
2022-08-01T02:45:28.004Z,11.77
2022-08-01T02:48:00.170Z,13.52
2022-08-01T02:50:29.392Z,11.15
2022-08-01T02:52:57.779Z,12.38
2022-08-01T02:55:25.612Z,14.02
2022-08-01T02:58:00.191Z,11.90
2022-08-01T03:00:29.357Z,13.25
2022-08-01T03:02:58.603Z,14.00
2022-08-01T03:05:26.894Z,13.50
2022-08-01T03:08:02.784Z,11.65
2022-08-01T03:10:31.767Z,11.60
2022-08-01T03:13:01.156Z,12.18
2022-08-01T03:15:31.865Z,11.88
2022-08-01T03:18:00.481Z,11.03
2022-08-01T03:20:28.560Z,12.98
2022-08-01T03:22:57.039Z,13.38
2022-08-01T03:25:25.031Z,12.50
2022-08-01T03:27:56.379Z,12.95
2022-08-01T03:30:25.901Z,13.77
2022-08-01T03:32:52.482Z,13.20
2022-08-01T03:35:19.700Z,15.32
2022-08-01T03:38:14.673Z,15.95
2022-08-01T03:40:44.162Z,15.02
2022-08-01T03:43:34.229Z,15.65
2022-08-01T03:46:08.542Z,13.75
2022-08-01T03:48:40.477Z,13.38
2022-08-01T03:51:09.149Z,12.73
2022-08-01T03:53:37.753Z,14.40
2022-08-01T03:56:09.572Z,14.93
2022-08-01T03:58:39.484Z,13.55
2022-08-01T04:01:08.048Z,13.63
2022-08-01T04:03:43.144Z,11.48
2022-08-01T04:06:11.643Z,11.98
2022-08-01T04:08:39.372Z,11.93
2022-08-01T04:11:05.938Z,11.45
2022-08-01T04:13:36.724Z,13.02
2022-08-01T04:16:04.311Z,11.38
2022-08-01T04:18:30.846Z,11.65
2022-08-01T04:20:57.342Z,13.35
2022-08-01T04:23:26.938Z,12.80
2022-08-01T04:25:54.163Z,12.65
2022-08-01T04:28:23.186Z,13.77
2022-08-01T04:30:52.893Z,12.15
2022-08-01T04:33:20.797Z,12.32
2022-08-01T04:36:03.359Z,11.98
2022-08-01T04:38:34.266Z,12.20
2022-08-01T04:41:09.075Z,14.13
2022-08-01T04:43:37.388Z,12.27
2022-08-01T04:46:04.897Z,13.35
2022-08-01T04:48:33.695Z,12.18
2022-08-01T04:51:00.272Z,11.93
2022-08-01T04:53:27.526Z,13.02
2022-08-01T04:55:54.180Z,13.55
2022-08-01T04:58:20.682Z,12.43
2022-08-01T05:00:47.932Z,12.60
2022-08-01T05:03:14.935Z,14.38
2022-08-01T05:05:41.512Z,12.93
2022-08-01T05:08:08.003Z,11.82
2022-08-01T05:10:35.258Z,13.13
2022-08-01T05:13:01.814Z,12.13
2022-08-01T05:15:28.375Z,12.15
2022-08-01T05:17:55.379Z,11.70
2022-08-01T05:20:22.176Z,11.32
2022-08-01T05:22:48.704Z,10.88
2022-08-01T05:25:19.972Z,12.73
2022-08-01T05:27:47.075Z,11.38
2022-08-01T05:30:16.795Z,12.32
2022-08-01T05:32:43.337Z,12.85
2022-08-01T05:35:10.082Z,11.80
2022-08-01T05:37:36.568Z,12.32
2022-08-01T05:40:03.816Z,11.63
2022-08-01T05:42:30.838Z,10.63
2022-08-01T05:44:57.364Z,10.52
2022-08-01T05:47:24.266Z,12.18
2022-08-01T05:49:50.860Z,10.48
2022-08-01T05:52:17.401Z,13.88
2022-08-01T05:54:43.931Z,10.30
2022-08-01T05:57:11.209Z,9.75
2022-08-01T05:59:39.029Z,9.50
2022-08-01T06:02:05.846Z,10.10
2022-08-01T06:04:32.663Z,10.05
2022-08-01T06:06:59.241Z,9.65
2022-08-01T06:09:25.788Z,9.93
2022-08-01T06:11:52.431Z,9.35
2022-08-01T06:14:18.936Z,9.05
2022-08-01T06:16:45.479Z,10.32
2022-08-01T06:19:12.063Z,8.73
2022-08-01T06:21:38.581Z,8.63
2022-08-01T06:24:05.652Z,10.07
2022-08-01T06:26:33.064Z,9.27
2022-08-01T06:28:59.592Z,9.60
2022-08-01T06:31:29.302Z,8.20
2022-08-01T06:33:58.295Z,8.05
2022-08-01T06:36:24.805Z,7.28
2022-08-01T06:38:51.328Z,6.85
2022-08-01T06:41:17.809Z,6.75
2022-08-01T06:43:44.291Z,6.75
2022-08-01T06:46:10.941Z,7.20
2022-08-01T06:48:40.188Z,7.07
2022-08-01T06:51:09.782Z,7.10
2022-08-01T06:53:37.972Z,7.10
2022-08-01T06:56:05.837Z,7.15
2022-08-01T06:58:32.500Z,6.95
2022-08-01T07:00:59.521Z,7.40
2022-08-01T07:03:26.380Z,6.70
2022-08-01T07:05:54.321Z,6.72
2022-08-01T07:08:21.884Z,7.50
2022-08-01T07:10:48.371Z,7.43
2022-08-01T07:13:17.232Z,7.03
2022-08-01T07:15:44.336Z,7.40
2022-08-01T07:18:10.822Z,6.80
2022-08-01T07:20:50.390Z,6.38
2022-08-01T07:23:19.406Z,6.72
2022-08-01T07:25:52.565Z,6.95
2022-08-01T07:28:19.719Z,7.20
2022-08-01T07:30:46.405Z,7.07
2022-08-01T07:33:13.344Z,7.22
2022-08-01T07:35:40.438Z,6.82
2022-08-01T07:38:12.752Z,6.65
2022-08-01T07:40:39.460Z,7.38
2022-08-01T07:43:06.079Z,6.95
2022-08-01T07:45:32.655Z,6.82
2022-08-01T07:48:08.319Z,6.90
2022-08-01T07:50:35.762Z,7.68
2022-08-01T07:53:03.373Z,7.30
2022-08-01T07:55:29.955Z,8.50
2022-08-01T07:57:56.545Z,8.32
2022-08-01T08:00:23.059Z,8.43
2022-08-01T08:02:49.581Z,8.50
2022-08-01T08:05:16.080Z,8.27
2022-08-01T08:08:05.516Z,8.70
2022-08-01T08:10:32.012Z,9.05
2022-08-01T08:12:58.527Z,8.73
2022-08-01T08:15:25.097Z,8.65
2022-08-01T08:17:55.271Z,8.60
2022-08-01T08:20:27.914Z,8.55
2022-08-01T08:22:55.304Z,9.07
2022-08-01T08:25:22.861Z,8.10
2022-08-01T08:27:53.709Z,8.00
2022-08-01T08:30:20.793Z,7.82
2022-08-01T08:32:48.811Z,8.07
2022-08-01T08:35:20.095Z,8.20
2022-08-01T08:37:49.973Z,8.35
2022-08-01T08:40:16.881Z,8.10
2022-08-01T08:42:43.903Z,7.97
2022-08-01T08:45:11.951Z,7.60
2022-08-01T08:47:40.433Z,7.47
2022-08-01T08:50:07.357Z,6.60
2022-08-01T08:52:38.817Z,7.10
2022-08-01T08:57:32.333Z,6.88
2022-08-01T08:59:59.270Z,6.55
2022-08-01T09:02:25.790Z,5.93
2022-08-01T09:04:52.555Z,5.32
2022-08-01T09:07:19.068Z,5.43
2022-08-01T09:09:45.640Z,5.30
2022-08-01T09:12:17.917Z,5.53
2022-08-01T09:14:48.304Z,5.00
2022-08-01T09:17:14.830Z,6.45
2022-08-01T09:19:44.204Z,6.40
2022-08-01T09:22:13.040Z,7.00
2022-08-01T09:24:41.710Z,6.13
2022-08-01T09:27:22.005Z,6.43
2022-08-01T09:29:49.933Z,6.40
2022-08-01T09:32:35.266Z,5.93
2022-08-01T09:35:29.862Z,6.30
2022-08-01T09:38:18.929Z,6.00
2022-08-01T09:40:47.442Z,6.18
2022-08-01T09:43:15.969Z,6.25
2022-08-01T09:45:45.701Z,5.70
2022-08-01T09:48:17.071Z,6.07
2022-08-01T09:50:45.851Z,5.10
2022-08-01T09:53:29.805Z,4.50
2022-08-01T09:56:10.105Z,4.50
2022-08-01T09:59:01.491Z,5.30
2022-08-01T10:01:46.806Z,4.68
2022-08-01T10:04:19.420Z,4.90
2022-08-01T10:06:50.705Z,4.63
2022-08-01T10:12:04.072Z,5.55
2022-08-01T10:14:31.750Z,5.18
2022-08-01T10:17:02.997Z,5.05
2022-08-01T10:19:33.557Z,5.20
2022-08-01T10:22:01.310Z,4.68
2022-08-01T10:24:30.645Z,4.35
2022-08-01T10:27:06.082Z,4.43
2022-08-01T10:30:05.686Z,4.20
2022-08-01T10:32:36.010Z,4.50
2022-08-01T10:35:06.750Z,4.28
2022-08-01T10:37:52.122Z,4.35
2022-08-01T10:40:31.833Z,4.55
2022-08-01T10:42:58.911Z,4.72
2022-08-01T10:45:27.513Z,4.80
2022-08-01T10:48:24.619Z,5.38
2022-08-01T10:50:54.915Z,4.20
2022-08-01T10:53:30.812Z,4.43
2022-08-01T10:56:02.794Z,4.07
2022-08-01T10:58:42.253Z,4.30
2022-08-01T11:01:16.965Z,4.45
2022-08-01T11:03:59.944Z,4.50
2022-08-01T11:06:33.885Z,4.28
2022-08-01T11:09:12.539Z,4.47
2022-08-01T11:12:06.334Z,4.45
2022-08-01T11:14:54.607Z,4.78
2022-08-01T11:17:45.046Z,4.90
2022-08-01T11:20:18.199Z,5.03
2022-08-01T11:23:03.648Z,4.68
2022-08-01T11:26:05.965Z,4.50
2022-08-01T11:28:32.346Z,4.70
2022-08-01T11:31:07.834Z,4.45
2022-08-01T11:33:40.554Z,4.60
2022-08-01T11:36:14.744Z,4.97
2022-08-01T11:38:45.923Z,4.82
2022-08-01T11:41:12.460Z,5.07
2022-08-01T11:44:00.521Z,4.95
2022-08-01T11:46:49.927Z,4.68
2022-08-01T11:49:49.234Z,4.90
2022-08-01T11:52:25.669Z,6.20
2022-08-01T11:55:10.001Z,5.10
2022-08-01T11:57:39.052Z,4.95
2022-08-01T12:00:15.249Z,5.28
2022-08-01T12:02:45.780Z,5.18
2022-08-01T12:05:15.333Z,6.07
2022-08-01T12:07:44.538Z,6.30
2022-08-01T12:10:13.940Z,6.97
2022-08-01T12:12:47.524Z,6.40
2022-08-01T12:15:14.373Z,5.97
2022-08-01T12:17:57.261Z,6.00
2022-08-01T12:20:33.774Z,5.97
2022-08-01T12:23:07.013Z,5.63
2022-08-01T12:25:33.914Z,5.57
2022-08-01T12:28:11.142Z,5.43
2022-08-01T12:30:38.670Z,5.60
2022-08-01T12:33:11.007Z,5.30
2022-08-01T12:35:39.355Z,5.57
2022-08-01T12:38:08.682Z,5.30
2022-08-01T12:40:40.837Z,5.57
2022-08-01T12:43:15.811Z,5.57
2022-08-01T12:45:56.972Z,6.35
2022-08-01T12:48:25.316Z,6.80
2022-08-01T12:50:53.438Z,6.15
2022-08-01T12:53:21.603Z,7.35
2022-08-01T12:55:59.039Z,6.13
2022-08-01T12:58:32.633Z,6.00
2022-08-01T13:01:08.194Z,6.15
2022-08-01T13:03:35.229Z,6.00
2022-08-01T13:06:02.118Z,5.72
2022-08-01T13:08:34.502Z,6.00
2022-08-01T13:11:15.062Z,5.93
2022-08-01T13:13:50.227Z,6.10
2022-08-01T13:16:27.906Z,5.88
2022-08-01T13:19:01.479Z,6.28
2022-08-01T13:21:34.495Z,5.65
2022-08-01T13:24:25.540Z,6.80
2022-08-01T13:26:57.127Z,6.13
2022-08-01T13:29:31.290Z,5.50
2022-08-01T13:31:58.660Z,5.20
2022-08-01T13:34:33.326Z,7.18
2022-08-01T13:37:02.410Z,7.20
2022-08-01T13:39:45.438Z,6.50
2022-08-01T13:42:19.288Z,5.90
2022-08-01T13:44:46.317Z,5.32
2022-08-01T13:47:14.940Z,5.60
2022-08-01T13:49:43.645Z,5.60
2022-08-01T13:52:10.958Z,6.15
2022-08-01T13:54:37.641Z,6.93
2022-08-01T13:57:04.377Z,5.30
2022-08-01T13:59:30.918Z,5.47
2022-08-01T14:01:57.497Z,6.85
2022-08-01T14:04:24.572Z,7.95
2022-08-01T14:06:51.227Z,5.75
2022-08-01T14:09:24.192Z,5.72
2022-08-01T14:11:51.343Z,5.90
2022-08-01T14:14:17.872Z,5.35
2022-08-01T14:16:45.841Z,5.82
2022-08-01T14:19:12.741Z,5.75
2022-08-01T14:21:39.308Z,5.78
2022-08-01T14:24:07.534Z,5.60
2022-08-01T14:26:34.181Z,6.28
2022-08-01T14:29:03.044Z,6.78
2022-08-01T14:31:34.044Z,7.18
2022-08-01T14:34:01.256Z,5.53
2022-08-01T14:36:29.381Z,6.47
2022-08-01T14:39:00.154Z,5.53
2022-08-01T14:41:27.417Z,5.28
2022-08-01T14:43:54.504Z,5.13
2022-08-01T14:46:21.275Z,5.60
2022-08-01T14:48:47.819Z,5.78
2022-08-01T14:51:14.382Z,5.53
2022-08-01T14:53:46.703Z,5.53
2022-08-01T14:56:18.145Z,5.10
2022-08-01T14:58:44.901Z,5.35
2022-08-01T15:01:11.500Z,5.72
2022-08-01T15:03:38.294Z,5.35
2022-08-01T15:06:05.122Z,5.35
2022-08-01T15:08:33.158Z,6.13
2022-08-01T15:10:59.696Z,5.03
2022-08-01T15:13:26.208Z,6.07
2022-08-01T15:15:52.806Z,4.57
2022-08-01T15:18:19.316Z,4.88
2022-08-01T15:20:46.376Z,6.00
2022-08-01T15:23:13.377Z,6.43
2022-08-01T15:25:41.114Z,6.72
2022-08-01T15:28:09.689Z,4.82
2022-08-01T15:30:36.232Z,6.63
2022-08-01T15:33:02.752Z,5.20
2022-08-01T15:35:29.319Z,5.05
2022-08-01T15:37:56.906Z,7.63
2022-08-01T15:40:23.429Z,5.63
2022-08-01T15:42:49.982Z,5.45
2022-08-01T15:45:44.631Z,4.82
2022-08-01T15:48:06.012Z,6.28
2022-08-01T15:50:32.597Z,5.10
2022-08-01T15:52:59.171Z,4.78
2022-08-01T15:55:25.683Z,6.03
2022-08-01T15:57:52.184Z,4.90
2022-08-01T16:00:18.710Z,5.28
2022-08-01T16:02:45.391Z,6.07
2022-08-01T16:05:11.944Z,5.55
2022-08-01T16:07:59.272Z,4.25
2022-08-01T16:10:24.982Z,4.63
2022-08-01T16:12:51.540Z,4.53
2022-08-01T16:15:18.061Z,4.82
2022-08-01T16:17:44.869Z,5.03
2022-08-01T16:20:11.660Z,4.50
2022-08-01T16:22:38.196Z,4.60
2022-08-01T16:25:05.855Z,4.53
2022-08-01T16:27:32.372Z,4.45
2022-08-01T16:29:58.868Z,4.20
2022-08-01T16:32:27.342Z,4.40
2022-08-01T16:34:55.112Z,4.70
2022-08-01T16:37:21.876Z,5.72
2022-08-01T16:39:48.385Z,4.47
2022-08-01T16:42:14.922Z,4.30
2022-08-01T16:44:42.726Z,4.22
2022-08-01T16:47:09.715Z,3.90
2022-08-01T16:49:36.755Z,3.95
2022-08-01T16:52:04.029Z,4.15
2022-08-01T16:54:30.702Z,3.72
2022-08-01T16:57:08.667Z,3.90
2022-08-01T16:59:41.661Z,4.70
2022-08-01T17:02:11.869Z,3.50
2022-08-01T17:04:38.516Z,3.63
2022-08-01T17:07:05.446Z,3.70
2022-08-01T17:09:34.248Z,6.40
2022-08-01T17:12:00.756Z,5.70
2022-08-01T17:14:28.588Z,4.18
2022-08-01T17:16:55.121Z,3.90
2022-08-01T17:19:26.915Z,3.50
2022-08-01T17:21:59.699Z,6.38
2022-08-01T17:24:26.199Z,4.00
2022-08-01T17:26:52.729Z,4.40
2022-08-01T17:29:19.243Z,4.65
2022-08-01T17:31:45.755Z,4.30
2022-08-01T17:34:12.350Z,5.75
2022-08-01T17:36:38.908Z,8.30
2022-08-01T17:39:06.436Z,4.93
2022-08-01T17:41:32.948Z,4.30
2022-08-01T17:43:59.441Z,4.22
2022-08-01T17:46:26.028Z,4.30
2022-08-01T17:48:52.745Z,4.10
2022-08-01T17:51:22.565Z,4.10
2022-08-01T17:53:57.501Z,4.17
2022-08-01T17:56:27.733Z,6.68
2022-08-01T17:58:56.803Z,4.40
2022-08-01T18:01:26.893Z,4.10
2022-08-01T18:03:57.687Z,5.53
2022-08-01T18:06:25.450Z,4.20
2022-08-01T18:08:53.084Z,3.92
2022-08-01T18:11:22.877Z,4.35
2022-08-01T18:13:51.365Z,3.80
2022-08-01T18:16:18.948Z,4.10
2022-08-01T18:18:45.499Z,4.30
2022-08-01T18:21:14.755Z,4.20
2022-08-01T18:23:50.982Z,4.57
2022-08-01T18:26:19.158Z,4.90
2022-08-01T18:28:46.475Z,4.80
2022-08-01T18:31:16.417Z,4.57
2022-08-01T18:33:43.196Z,4.32
2022-08-01T18:36:14.163Z,4.05
2022-08-01T18:38:56.207Z,4.10
2022-08-01T18:41:22.731Z,4.10
2022-08-01T18:43:50.302Z,4.20
2022-08-01T18:46:16.806Z,4.18
2022-08-01T18:48:43.381Z,4.20
2022-08-01T18:51:12.789Z,4.25
2022-08-01T18:53:42.765Z,4.28
2022-08-01T18:56:15.774Z,4.30
2022-08-01T18:58:42.358Z,4.25
2022-08-01T19:01:08.967Z,4.10
2022-08-01T19:03:43.436Z,4.32
2022-08-01T19:06:10.057Z,5.22
2022-08-01T19:08:39.840Z,4.40
2022-08-01T19:11:09.980Z,3.85
2022-08-01T19:13:36.731Z,3.90
2022-08-01T19:16:03.371Z,4.07
2022-08-01T19:18:30.002Z,3.90
2022-08-01T19:20:56.601Z,3.72
2022-08-01T19:23:41.917Z,3.30
2022-08-01T19:26:12.627Z,3.03
2022-08-01T19:28:45.768Z,3.83
2022-08-01T19:31:14.192Z,3.22
2022-08-01T19:33:41.473Z,3.58
2022-08-01T19:36:12.892Z,3.05
2022-08-01T19:38:39.462Z,3.03
2022-08-01T19:41:07.875Z,3.40
2022-08-01T19:43:46.199Z,4.03
2022-08-01T19:46:17.990Z,3.15
2022-08-01T19:48:54.021Z,3.45
2022-08-01T19:51:22.242Z,3.20
2022-08-01T19:53:55.317Z,3.63
2022-08-01T19:56:29.930Z,3.08
2022-08-01T19:59:00.277Z,3.20
2022-08-01T20:01:27.517Z,3.25
2022-08-01T20:03:55.866Z,3.10
2022-08-01T20:06:24.550Z,3.28
2022-08-01T20:08:54.246Z,3.55
2022-08-01T20:11:22.176Z,4.95
2022-08-01T20:13:50.592Z,3.45
2022-08-01T20:16:17.593Z,4.20
2022-08-01T20:18:44.380Z,3.40
2022-08-01T20:21:15.339Z,5.28
2022-08-01T20:23:45.633Z,4.95
2022-08-01T20:26:15.649Z,3.92
2022-08-01T20:28:53.252Z,3.60
2022-08-01T20:31:21.368Z,3.53
2022-08-01T20:33:49.001Z,4.63
2022-08-01T20:36:25.226Z,3.50
2022-08-01T20:38:57.474Z,5.75
2022-08-01T20:41:25.507Z,3.45
2022-08-01T20:43:54.604Z,3.95
2022-08-01T20:46:25.698Z,3.35
2022-08-01T20:48:57.628Z,4.18
2022-08-01T20:51:25.473Z,5.35
2022-08-01T20:53:55.151Z,5.45
2022-08-01T20:56:27.576Z,5.18
2022-08-01T20:59:39.756Z,4.75
2022-08-01T21:02:42.211Z,4.05
2022-08-01T21:05:10.978Z,4.47
2022-08-01T21:07:51.709Z,6.30
2022-08-01T21:10:20.524Z,4.13
2022-08-01T21:13:06.245Z,3.92
2022-08-01T21:16:04.167Z,6.30
2022-08-01T21:22:05.829Z,4.20
2022-08-01T21:25:01.346Z,3.90
2022-08-01T21:30:05.992Z,5.03
2022-08-01T21:32:34.391Z,3.88
2022-08-01T21:35:04.494Z,5.85
2022-08-01T21:37:31.442Z,3.78
2022-08-01T21:40:02.713Z,3.95
2022-08-01T21:42:38.816Z,4.80
2022-08-01T21:45:07.209Z,5.50
2022-08-01T21:47:34.720Z,5.25
2022-08-01T21:50:04.582Z,5.35
2022-08-01T21:52:45.309Z,5.13
2022-08-01T21:55:21.525Z,4.83
2022-08-01T21:58:23.763Z,3.55
2022-08-01T22:00:56.092Z,4.32
2022-08-01T22:03:25.655Z,5.70
2022-08-01T22:05:53.996Z,5.28
2022-08-01T22:08:36.579Z,6.20
2022-08-01T22:11:07.896Z,5.60
2022-08-01T22:13:35.889Z,5.82
2022-08-01T22:16:04.609Z,5.43
2022-08-01T22:18:32.782Z,4.93
2022-08-01T22:20:59.388Z,5.72
2022-08-01T22:23:26.546Z,4.43
2022-08-01T22:25:54.833Z,5.40
2022-08-01T22:28:23.109Z,4.43
2022-08-01T22:30:51.507Z,4.22
2022-08-01T22:33:18.938Z,5.15
2022-08-01T22:35:50.859Z,4.60
2022-08-01T22:38:19.672Z,5.53
2022-08-01T22:40:55.545Z,5.93
2022-08-01T22:43:26.299Z,6.65
2022-08-01T22:46:14.624Z,6.80
2022-08-01T22:48:57.829Z,5.82
2022-08-01T22:51:41.578Z,6.38
2022-08-01T22:54:12.353Z,5.07
2022-08-01T22:56:42.953Z,5.68
2022-08-01T22:59:20.686Z,4.97
2022-08-01T23:01:50.541Z,5.32
2022-08-01T23:04:33.890Z,4.43
2022-08-01T23:07:05.859Z,4.30
2022-08-01T23:09:39.415Z,5.30
2022-08-01T23:12:22.891Z,4.32
2022-08-01T23:14:55.089Z,4.32
2022-08-01T23:17:27.499Z,3.92
2022-08-01T23:20:02.010Z,3.85
2022-08-01T23:22:33.690Z,3.95
2022-08-01T23:25:06.321Z,4.05
2022-08-01T23:27:51.539Z,6.68
2022-08-01T23:30:30.852Z,3.40
2022-08-01T23:32:58.319Z,3.60
2022-08-01T23:35:25.707Z,4.25
2022-08-01T23:37:52.412Z,3.92
2022-08-01T23:40:19.919Z,3.50
2022-08-01T23:42:46.589Z,3.38
2022-08-01T23:45:13.746Z,3.97
2022-08-01T23:47:40.260Z,3.88
2022-08-01T23:50:07.812Z,4.68
2022-08-01T23:52:36.809Z,3.83
2022-08-01T23:55:15.710Z,4.13
2022-08-01T23:57:43.152Z,3.83
